Orange Wave — ELPX7 — position and weather

sailwx.info

Track history (hours):
 
Tides and Currents Weather Stations Pressure Air Temp Water Temp Dewpoint Dewpoint Depression Visibility Wind Speed Wind Dir Waves Ship Positions

Orange Wave

Last reported at 2015-Aug-29 00:33 UTC. Time now 2015-Aug-31 15:19 UTC.
Position S 24°03' W 046°19'.

Type: Cargo ship. MMSI: 636009894.

Date/timePositionNaut miles runAvg speedWind from/ knotsBaromVisibWave heightAir tempDewpointWater temp
2015-Aug-29 00:33S 24°03' W 046°19'5 0.3
2015-Aug-28 07:11S 23°59' W 046°17'0 0.0
2015-Aug-27 14:17S 23°59' W 046°17'0 0.0
2015-Aug-27 12:11S 23°59' W 046°17'0 0.0
2015-Aug-27 11:32S 23°59' W 046°17'0 0.0
2015-Aug-26 07:08S 23°59' W 046°17'0 0.0
2015-Aug-26 04:11S 23°59' W 046°17'1 0.1
2015-Aug-25 21:29S 23°59' W 046°17'7 7.5
2015-Aug-25 20:34S 24°04' W 046°22'5 5.5
2015-Aug-25 19:34S 24°10' W 046°23'1 0.7
2015-Aug-25 18:33S 24°09' W 046°23'2 2.2
2015-Aug-25 17:34S 24°07' W 046°23'2 2.2
2015-Aug-25 16:33S 24°05' W 046°23'4 3.5
2015-Aug-25 15:33S 24°04' W 046°20'4 4.5
2015-Aug-25 14:33S 24°04' W 046°15'10 9.7
2015-Aug-25 13:31S 24°02' W 046°04'  
Track history (hours):
 
Tides and Currents Weather Stations Pressure Air Temp Water Temp Dewpoint Dewpoint Depression Visibility Wind Speed Wind Dir Waves Ship Positions

Orange Wave

Last reported at 2015-Aug-29 00:33 UTC. Time now 2015-Aug-31 15:19 UTC.
Position S 24°03' W 046°19'.

Type: Cargo ship. MMSI: 636009894.

Date/timePositionNaut miles runAvg speedWind from/ knotsBaromVisibWave heightAir tempDewpointWater temp
2015-Aug-29 00:33S 24°03' W 046°19'5 0.3
2015-Aug-28 07:11S 23°59' W 046°17'0 0.0
2015-Aug-27 14:17S 23°59' W 046°17'0 0.0
2015-Aug-27 12:11S 23°59' W 046°17'0 0.0
2015-Aug-27 11:32S 23°59' W 046°17'0 0.0
2015-Aug-26 07:08S 23°59' W 046°17'0 0.0
2015-Aug-26 04:11S 23°59' W 046°17'1 0.1
2015-Aug-25 21:29S 23°59' W 046°17'7 7.5
2015-Aug-25 20:34S 24°04' W 046°22'5 5.5
2015-Aug-25 19:34S 24°10' W 046°23'1 0.7
2015-Aug-25 18:33S 24°09' W 046°23'2 2.2
2015-Aug-25 17:34S 24°07' W 046°23'2 2.2
2015-Aug-25 16:33S 24°05' W 046°23'4 3.5
2015-Aug-25 15:33S 24°04' W 046°20'4 4.5
2015-Aug-25 14:33S 24°04' W 046°15'10 9.7
2015-Aug-25 13:31S 24°02' W 046°04'  

Dump ship's entire track history